Hovedside
METAR-TAF:

METAR-TAF

Lufthavner :

Mosjøen, Norge

Mosjøen lufthavn. Kjærstad

breddegrad: 65-48N, lengdegrad: 013-08E, høyde over havet: 70 m

Gjeldene værobservasjon

Denne rapporten ble laget for 5 timer og 41 minutter siden, klokken 15:50 UTC
Vind 1 kt fra skiftende retning
Temperatur -8°C
Luftfuktighet 85%
Trykk 1038 hPa
Sikt: 2500 m
lett snø

METAR: ENMS 241550Z VRB01KT 2500 -SN VV015 M08/M10 Q1038 RESN RMK WIND 412FT VRB04KT

Tid: 22:31 (21:31 UTC)


TAF: fraværende

Værobservasjoner og værvarsel for over 4000 flyplasser (METAR- og TAF-rapporter).

Tilgjengelige stasjoner er representert av de røde og gule prikkene på kartet.

Hold musepekeren over prikken for å se navnet på stasjonen.

Klikk så for å se værobservasjoner og -varsler.

For å forandre kartet kan du klikke på den grønne knappen med svart kryss for å zoome inn, på den grønne knappen med strek for å zoome ut, eller på de grønne pilene for å se tilstøtende kart.


METAR-TAF: